Weather History for Paris, IL

Change the Weather History Date:

Wednesday, December 26, 2012

  Actual Average (KHUF) Record (KHUF)
Temperature  
Mean Temperature 30 °F 29 °F  
Max Temperature 32 °F 37 °F 63 °F (1982)
Min Temperature 29 °F 21 °F -5 °F (1980)
Degree Days  
Heating Degree Days 34 36  
Month to date heating degree days 853  
Since 1 July heating degree days 1931  
Cooling Degree Days 0 0  
Month to date cooling degree days 0  
Year to date cooling degree days 993  
Moisture  
Dew Point 27 °F    
Average Humidity 86    
Maximum Humidity 95    
Minimum Humidity 78    
Precipitation  
Precipitation 0.03 in 0.12 in 0.78 in (1957)
Month to date precipitation 2.44  
Year to date precipitation 44.55  
Sea Level Pressure  
Sea Level Pressure 29.92 in    
Wind  
Wind Speed 15 mph (North)    
Max Wind Speed 21 mph    
Max Gust Speed 32 mph    
Visibility 7 miles    
Events Snow    
T = Trace of Precipitation, MM = Missing Value Source: NWS Daily Summary

Daily Weather History Graph

Daily Weather History Graph

Search for Another Location

Airport:

Trip Planner

Search our weather history database for the weather conditions in past years. The results will help you decide how hot, cold, wet, or windy it might be!

Date:

Astronomy

Dec. 26, 2012 Rise Set
Actual Time 7:10 AM CST 4:32 PM CST
Civil Twilight 6:40 AM CST 5:03 PM CST
Nautical Twilight 6:06 AM CST 5:37 PM CST
Astronomical Twilight 5:33 AM CST 6:09 PM CST
Moon 3:26 PM CST (12/26) 5:33 AM CST (12/26)
Length of Visible Light 10h 23m
Length of Day
9h 22m
Waxing Gibbous, 97% of the Moon is Illuminated
Dec 26
Waxing Gibbous
Dec 28
Full
Jan 4
Last Quarter
Jan 11
New
Jan 18
First Quarter

Hourly Weather History & Observations

Time (CST) Temp. Windchill Dew Point Humidity Pressure Visibility Wind Dir Wind Speed Gust Speed Precip Events Conditions
12:15 AM 32.2 °F 21.4 °F 27.3 °F 82% 29.98 in 10.0 mi NE 16.1 mph 26.5 mph N/A   Overcast
12:35 AM 32.2 °F 20.7 °F 27.1 °F 82% 29.97 in 10.0 mi NE 18.4 mph 24.2 mph N/A   Overcast
12:55 AM 32.0 °F 20.1 °F 27.1 °F 82% 29.95 in 10.0 mi NE 19.6 mph 27.6 mph N/A   Overcast
1:15 AM 32.0 °F 20.8 °F 27.1 °F 82% 29.95 in 10.0 mi NE 17.3 mph 26.5 mph N/A   Overcast
1:35 AM 32.0 °F 20.5 °F 27.0 °F 82% 29.95 in 10.0 mi NE 18.4 mph 25.3 mph N/A   Overcast
1:55 AM 32.0 °F 20.5 °F 26.6 °F 80% 29.94 in 10.0 mi NE 18.4 mph 28.8 mph N/A   Overcast
2:15 AM 32.0 °F 21.2 °F 26.6 °F 80% 29.93 in 10.0 mi NE 16.1 mph 25.3 mph N/A   Overcast
2:35 AM 32.0 °F 20.8 °F 26.4 °F 80% 29.92 in 10.0 mi NE 17.3 mph 29.9 mph N/A   Overcast
2:55 AM 32.0 °F 21.2 °F 26.4 °F 80% 29.90 in 10.0 mi NE 16.1 mph 27.6 mph N/A   Overcast
3:15 AM 32.0 °F 21.6 °F 26.2 °F 79% 29.89 in 10.0 mi NNE 15.0 mph 27.6 mph N/A   Overcast
3:35 AM 32.0 °F 20.8 °F 26.2 °F 79% 29.87 in 10.0 mi NNE 17.3 mph 23.0 mph N/A   Overcast
3:55 AM 32.0 °F 21.2 °F 25.9 °F 78% 29.86 in 10.0 mi NE 16.1 mph 25.3 mph N/A   Overcast
4:15 AM 32.0 °F 20.8 °F 26.1 °F 79% 29.86 in 10.0 mi NE 17.3 mph 25.3 mph N/A   Overcast
4:35 AM 32.0 °F 20.1 °F 26.2 °F 79% 29.85 in 10.0 mi NNE 19.6 mph 27.6 mph N/A   Overcast
4:55 AM 32.0 °F 20.8 °F 26.6 °F 80% 29.82 in 5.0 mi NNE 17.3 mph 28.8 mph N/A Snow Light Snow
5:15 AM 31.5 °F 19.4 °F 26.8 °F 83% 29.83 in 4.0 mi NE 19.6 mph 28.8 mph N/A Snow Light Snow
5:35 AM 30.6 °F 19.4 °F 27.5 °F 88% 29.83 in 1.5 mi NNE 16.1 mph 24.2 mph N/A Snow Light Snow
5:55 AM 30.0 °F 18.3 °F 27.5 °F 90% 29.83 in 0.8 mi NNE 17.3 mph 26.5 mph N/A Snow Snow
6:15 AM 29.5 °F 17.6 °F 27.7 °F 93% 29.82 in 1.2 mi NNE 17.3 mph 21.9 mph N/A Snow Light Snow
6:35 AM 29.3 °F 18.6 °F 27.5 °F 93% 29.82 in 1.2 mi NNE 13.8 mph 24.2 mph N/A Snow Snow
6:55 AM 29.3 °F 17.3 °F 27.7 °F 94% 29.81 in 1.0 mi NNE 17.3 mph 24.2 mph 0.01 in Snow Snow
7:15 AM 29.3 °F 18.2 °F 27.9 °F 94% 29.81 in 0.8 mi North 15.0 mph 24.2 mph N/A Snow Snow
7:35 AM 29.7 °F 19.6 °F 28.2 °F 94% 29.81 in 0.5 mi North 12.7 mph 23.0 mph 0.01 in Snow Snow
7:55 AM 29.3 °F 19.1 °F 28.0 °F 95% 29.81 in 0.5 mi North 12.7 mph 23.0 mph 0.02 in Snow Snow
8:15 AM 29.3 °F 18.2 °F 28.0 °F 95% 29.81 in 1.2 mi North 15.0 mph 23.0 mph N/A Snow Light Snow
8:35 AM 29.5 °F 17.2 °F 27.9 °F 94% 29.82 in 1.5 mi North 18.4 mph 24.2 mph N/A Snow Light Snow
8:55 AM 29.7 °F 18.2 °F 27.9 °F 93% 29.82 in 1.0 mi North 16.1 mph 27.6 mph N/A Snow Light Snow
9:15 AM 29.8 °F 19.8 °F 28.0 °F 93% 29.82 in 0.8 mi North 12.7 mph 26.5 mph N/A Snow Light Snow
9:35 AM 30.0 °F 18.7 °F 28.2 °F 93% 29.83 in 0.8 mi North 16.1 mph 25.3 mph N/A Snow Light Snow
9:55 AM 29.8 °F 18.0 °F 28.0 °F 93% 29.83 in 1.0 mi North 17.3 mph 25.3 mph N/A Snow Light Snow
10:15 AM 29.8 °F 18.4 °F 27.9 °F 92% 29.83 in 1.5 mi North 16.1 mph 25.3 mph N/A Snow Light Snow
10:35 AM 29.8 °F 18.0 °F 27.5 °F 91% 29.83 in 1.8 mi North 17.3 mph 31.1 mph N/A Snow Light Snow
10:55 AM 30.0 °F 19.1 °F 27.3 °F 90% 29.83 in 1.8 mi North 15.0 mph 28.8 mph N/A Snow Light Snow
11:15 AM 30.2 °F 19.8 °F 27.3 °F 89% 29.82 in 2.5 mi North 13.8 mph 27.6 mph N/A Snow Light Snow
11:35 AM 30.2 °F 18.5 °F 27.0 °F 88% 29.82 in 3.0 mi North 17.3 mph 28.8 mph N/A Snow Light Snow
11:55 AM 30.2 °F 18.5 °F 27.0 °F 88% 29.82 in 3.0 mi North 17.3 mph 28.8 mph N/A Snow Light Snow
12:15 PM 30.2 °F 18.1 °F 27.0 °F 88% 29.83 in 3.0 mi North 18.4 mph 26.5 mph N/A Snow Light Snow
12:35 PM 30.4 °F 19.1 °F 27.0 °F 87% 29.83 in 4.0 mi North 16.1 mph 32.2 mph N/A Snow Light Snow
12:55 PM 30.2 °F 17.4 °F 27.0 °F 88% 29.85 in 2.5 mi North 20.7 mph 28.8 mph N/A Snow Light Snow
1:15 PM 30.6 °F 18.6 °F 27.3 °F 88% 29.85 in 1.8 mi North 18.4 mph 25.3 mph N/A Snow Light Snow
1:35 PM 30.2 °F 19.8 °F 28.4 °F 93% 29.86 in 3.0 mi North 13.8 mph 19.6 mph N/A Snow Light Snow
1:55 PM 31.1 °F 21.4 °F 27.5 °F 87% 29.87 in 7.0 mi North 12.7 mph 23.0 mph N/A Snow Light Snow
2:15 PM 31.5 °F 20.9 °F 27.3 °F 85% 29.87 in 10.0 mi North 15.0 mph 25.3 mph N/A Snow Light Snow
2:35 PM 31.8 °F 22.3 °F 26.4 °F 80% 29.88 in 10.0 mi North 12.7 mph 21.9 mph N/A   Overcast
2:55 PM 32.0 °F 22.5 °F 26.4 °F 80% 29.90 in 10.0 mi North 12.7 mph 24.2 mph N/A   Overcast
3:15 PM 32.0 °F 22.5 °F 26.2 °F 79% 29.90 in 10.0 mi North 12.7 mph 21.9 mph N/A   Overcast
3:35 PM 32.0 °F 21.2 °F 26.4 °F 80% 29.92 in 4.0 mi North 16.1 mph 21.9 mph N/A Snow Light Snow
3:55 PM 32.0 °F 21.2 °F 26.6 °F 80% 29.93 in 5.0 mi North 16.1 mph 23.0 mph N/A Snow Light Snow
4:15 PM 32.0 °F 23.6 °F 26.6 °F 80% 29.94 in 10.0 mi North 10.4 mph 19.6 mph N/A   Overcast
4:35 PM 31.8 °F 22.8 °F 26.8 °F 82% 29.96 in 5.0 mi NNW 11.5 mph 17.3 mph N/A Snow Light Snow
4:55 PM 31.5 °F 23.5 °F 27.9 °F 87% 29.97 in 5.0 mi NNW 9.2 mph 16.1 mph N/A Snow Light Snow
5:15 PM 31.1 °F 21.4 °F 28.4 °F 90% 29.98 in 10.0 mi NNW 12.7 mph - N/A Snow Light Snow
5:35 PM 31.1 °F 23.1 °F 28.4 °F 90% 29.99 in 10.0 mi NNW 9.2 mph 18.4 mph N/A Snow Light Snow
5:55 PM 31.6 °F 23.1 °F 28.2 °F 87% 30.00 in 10.0 mi North 10.4 mph - N/A   Overcast
6:15 PM 31.6 °F 23.7 °F 27.9 °F 86% 30.00 in 10.0 mi North 9.2 mph 17.3 mph N/A   Overcast
6:35 PM 31.8 °F 23.9 °F 27.7 °F 85% 30.01 in 10.0 mi North 9.2 mph - N/A   Overcast
6:55 PM 31.6 °F 25.1 °F 28.2 °F 87% 30.01 in 10.0 mi NNW 6.9 mph - N/A   Overcast
7:15 PM 31.5 °F 22.9 °F 28.2 °F 88% 30.02 in 10.0 mi NNW 10.4 mph - N/A   Overcast
7:35 PM 31.6 °F 24.4 °F 28.2 °F 87% 30.02 in 10.0 mi NNW 8.1 mph - N/A   Overcast
7:55 PM 31.6 °F 23.1 °F 27.9 °F 86% 30.02 in 10.0 mi NNW 10.4 mph - N/A   Overcast
8:15 PM 31.6 °F 22.6 °F 27.5 °F 85% 30.03 in 10.0 mi NW 11.5 mph 17.3 mph N/A   Overcast
8:35 PM 31.6 °F 23.7 °F 27.5 °F 85% 30.03 in 10.0 mi NNW 9.2 mph - N/A   Overcast
8:55 PM 31.8 °F 24.6 °F 27.5 °F 84% 30.04 in 10.0 mi NNW 8.1 mph - N/A   Overcast
9:15 PM 31.6 °F 24.4 °F 27.3 °F 84% 30.05 in 10.0 mi NNW 8.1 mph - N/A   Overcast
9:35 PM 31.6 °F 23.7 °F 27.1 °F 83% 30.05 in 10.0 mi NNW 9.2 mph - N/A   Overcast
9:55 PM 31.5 °F 24.9 °F 26.6 °F 82% 30.05 in 10.0 mi NNW 6.9 mph - N/A   Overcast
10:15 PM 31.1 °F 25.4 °F 26.6 °F 83% 30.05 in 10.0 mi NNW 5.8 mph - N/A   Overcast
10:35 PM 31.1 °F 23.7 °F 26.6 °F 83% 30.06 in 10.0 mi NNW 8.1 mph - N/A   Overcast
10:55 PM 31.1 °F 25.4 °F 26.4 °F 83% 30.06 in 10.0 mi NNW 5.8 mph - N/A   Overcast
11:15 PM 31.1 °F 25.4 °F 26.4 °F 83% 30.07 in 10.0 mi NNW 5.8 mph - N/A   Overcast
11:35 PM 30.4 °F 21.5 °F 26.4 °F 85% 30.07 in 10.0 mi NW 10.4 mph - N/A   Overcast
11:55 PM 30.0 °F 21.7 °F 26.4 °F 86% 30.06 in 10.0 mi NW 9.2 mph - N/A   Overcast